Time;durP1;ratioP1;P1;durP2;ratioP2;P2;SDS_P1;SDS_P2;PMS_P1;PMS_P2;Temp;Humidity;BMP_temperature;BMP_pressure;BME280_temperature;BME280_humidity;BME280_pressure;Samples;Min_cycle;Max_cycle;Signal;HPM_P1;HPM_P2
2022/03/29 00:01:01;;;;;;;3.95;3.38;;;;;;;20.99;35.03;101834.56;5003469;28;20932;-74
2022/03/29 00:03:27;;;;;;;4.90;3.65;;;;;;;20.98;35.26;101827.59;5029791;28;20041;-74
2022/03/29 00:05:53;;;;;;;4.47;3.60;;;;;;;20.96;35.26;101831.41;5006128;28;20076;-74
2022/03/29 00:08:18;;;;;;;5.55;3.80;;;;;;;20.88;35.32;101823.47;5029989;28;20041;-74
2022/03/29 00:10:45;;;;;;;4.85;3.75;;;;;;;20.93;35.21;101826.44;5003428;28;20040;-74
2022/03/29 00:13:10;;;;;;;3.90;3.40;;;;;;;20.93;35.15;101819.34;5029803;28;20071;-74
2022/03/29 00:15:36;;;;;;;4.65;4.03;;;;;;;20.92;35.25;101817.69;4991048;28;20042;-74
2022/03/29 00:18:02;;;;;;;5.32;3.78;;;;;;;20.92;35.22;101819.50;5030771;28;20133;-74
2022/03/29 00:20:27;;;;;;;4.95;3.90;;;;;;;20.88;35.28;101803.13;5031497;28;20060;-74
2022/03/29 00:22:53;;;;;;;4.70;3.70;;;;;;;20.80;35.17;101790.66;5001364;28;20034;-74
2022/03/29 00:25:19;;;;;;;4.63;4.05;;;;;;;20.86;35.51;101793.69;5032968;28;20049;-74
2022/03/29 00:27:45;;;;;;;4.00;3.55;;;;;;;20.90;35.29;101801.13;5008481;28;20188;-75
2022/03/29 00:30:11;;;;;;;5.75;3.90;;;;;;;20.84;35.19;101793.03;5039829;28;20445;-74
2022/03/29 00:32:40;;;;;;;4.80;3.55;;;;;;;20.82;35.26;101785.22;4991452;28;20403;-74
2022/03/29 00:35:06;;;;;;;5.97;4.35;;;;;;;20.89;35.22;101793.34;5028408;28;20144;-74
2022/03/29 00:37:33;;;;;;;5.03;3.80;;;;;;;20.85;35.36;101798.16;5027196;28;20040;-74
2022/03/29 00:39:59;;;;;;;6.28;4.00;;;;;;;20.84;35.32;101801.78;5010169;28;20040;-73
2022/03/29 00:42:24;;;;;;;5.35;4.03;;;;;;;20.79;35.35;101790.84;5034272;28;20048;-73
2022/03/29 00:44:50;;;;;;;6.25;4.05;;;;;;;20.81;35.45;101792.34;5004420;28;20045;-73
2022/03/29 00:47:15;;;;;;;4.60;3.70;;;;;;;20.82;35.36;101795.81;5037295;28;20021;-74
2022/03/29 00:49:41;;;;;;;4.22;3.67;;;;;;;20.77;35.40;101793.66;4993628;28;20436;-74
2022/03/29 00:52:07;;;;;;;5.00;3.90;;;;;;;20.78;35.20;101790.00;5036829;28;20043;-73
2022/03/29 00:54:35;;;;;;;5.10;3.58;;;;;;;20.79;35.39;101790.84;5027320;28;20037;-73
2022/03/29 00:57:03;;;;;;;5.28;4.25;;;;;;;20.79;35.47;101780.25;5012833;28;20037;-74
2022/03/29 00:59:29;;;;;;;6.07;4.05;;;;;;;20.75;35.54;101781.56;5036150;28;20037;-73
2022/03/29 01:02:00;;;;;;;5.88;4.03;;;;;;;20.78;35.40;101784.72;5011213;28;20634;-73
2022/03/29 01:04:27;;;;;;;5.55;4.05;;;;;;;20.75;35.34;101773.63;5034296;28;20037;-73
2022/03/29 01:06:53;;;;;;;5.32;4.38;;;;;;;20.75;35.37;101777.09;4990309;28;20029;-73
2022/03/29 01:09:19;;;;;;;5.03;4.10;;;;;;;20.73;35.42;101759.75;5029535;28;20155;-73
2022/03/29 01:11:45;;;;;;;5.72;4.00;;;;;;;20.69;35.61;101761.88;5010827;28;20469;-73
2022/03/29 01:14:10;;;;;;;5.05;4.13;;;;;;;20.49;35.44;101732.25;5037038;28;20025;-74
2022/03/29 01:19:21;;;;;;;5.35;4.30;;;;;;;20.71;35.40;101757.25;5035994;28;20037;-73
2022/03/29 01:22:05;;;;;;;5.53;4.05;;;;;;;20.72;35.46;101753.63;5008435;28;20143;-73
2022/03/29 01:24:32;;;;;;;5.13;4.25;;;;;;;20.71;35.40;101736.09;5023287;28;20080;-73
2022/03/29 01:27:00;;;;;;;5.75;4.05;;;;;;;20.69;35.39;101738.06;5037071;28;20071;-73
2022/03/29 01:29:28;;;;;;;4.97;4.00;;;;;;;20.50;35.47;101710.09;5007979;28;20037;-73
2022/03/29 01:31:54;;;;;;;4.75;3.83;;;;;;;20.68;35.45;101731.13;5062757;28;20083;-72
2022/03/29 01:34:20;;;;;;;5.47;4.22;;;;;;;20.66;35.55;101729.63;5001091;28;20048;-74
2022/03/29 01:36:46;;;;;;;5.53;4.18;;;;;;;20.66;35.55;101719.03;5022665;28;20565;-73
2022/03/29 01:39:12;;;;;;;5.25;4.38;;;;;;;20.63;35.66;101717.53;5002538;28;21004;-74
2022/03/29 01:41:38;;;;;;;5.43;4.30;;;;;;;20.60;35.57;101706.44;5022884;28;20128;-74
2022/03/29 01:44:08;;;;;;;6.03;4.18;;;;;;;20.61;35.54;101711.56;5028738;28;20088;-74
2022/03/29 01:46:34;;;;;;;;;;;;;;;20.60;35.53;101719.69;5005653;28;20052;-74
2022/03/29 01:49:00;;;;;;;5.78;3.95;;;;;;;20.63;35.60;101714.06;5029590;28;19959;-74
2022/03/29 01:51:27;;;;;;;5.75;4.05;;;;;;;20.59;35.61;101699.50;5001948;28;20033;-75
2022/03/29 01:53:59;;;;;;;5.93;3.95;;;;;;;20.59;35.69;101699.50;5029811;28;20029;-75
2022/03/29 01:56:32;;;;;;;5.55;4.03;;;;;;;20.58;35.69;101701.31;4999277;28;20037;-75
2022/03/29 01:58:59;;;;;;;6.18;4.55;;;;;;;20.54;35.82;101693.88;5036477;28;20037;-75
2022/03/29 02:01:25;;;;;;;6.05;4.40;;;;;;;20.50;35.60;101683.63;5030825;28;20603;-72
2022/03/29 02:03:50;;;;;;;5.47;4.20;;;;;;;20.55;35.76;101703.47;5001380;28;20069;-75
2022/03/29 02:06:16;;;;;;;6.38;4.28;;;;;;;20.54;35.82;101705.28;5034887;28;20396;-75
2022/03/29 02:08:41;;;;;;;6.68;4.57;;;;;;;20.45;35.73;101696.50;5002523;28;20302;-75
2022/03/29 02:11:07;;;;;;;6.15;3.95;;;;;;;20.51;35.73;101706.44;5027864;28;20052;-75
2022/03/29 02:13:33;;;;;;;6.18;4.70;;;;;;;20.51;35.86;101700.34;4991110;28;20036;-75
2022/03/29 02:15:59;;;;;;;6.00;4.32;;;;;;;20.54;35.68;101700.00;5033761;28;20148;-74
2022/03/29 02:18:24;;;;;;;6.13;4.45;;;;;;;20.53;35.76;101701.00;5001359;28;20041;-75
2022/03/29 02:20:50;;;;;;;6.85;4.97;;;;;;;20.49;35.72;101697.84;5033962;28;20045;-75
2022/03/29 02:23:16;;;;;;;5.88;4.43;;;;;;;20.51;35.59;101698.50;5004534;28;20403;-75
2022/03/29 02:25:45;;;;;;;5.47;4.35;;;;;;;20.54;35.76;101712.41;5030592;28;20048;-73
2022/03/29 02:28:11;;;;;;;5.00;4.20;;;;;;;20.49;35.75;101700.50;5005600;28;20056;-74
2022/03/29 02:30:37;;;;;;;6.20;4.60;;;;;;;20.49;35.75;101699.66;5024250;28;20036;-73
2022/03/29 02:33:04;;;;;;;6.28;4.53;;;;;;;20.46;36.03;101695.50;5030971;28;20037;-73
2022/03/29 02:35:30;;;;;;;5.63;4.50;;;;;;;20.38;35.80;101682.25;5007254;28;20448;-75
2022/03/29 02:37:55;;;;;;;6.82;4.40;;;;;;;20.44;35.88;101697.50;5028427;28;20040;-73
2022/03/29 02:40:21;;;;;;;6.50;4.57;;;;;;;20.45;35.74;101698.31;5001124;28;20071;-74
2022/03/29 02:42:48;;;;;;;5.80;4.45;;;;;;;20.47;35.73;101691.91;5028241;28;20041;-74
2022/03/29 02:45:16;;;;;;;5.90;4.43;;;;;;;20.25;35.81;101658.06;4997927;28;20069;-74
2022/03/29 02:47:46;;;;;;;6.07;4.28;;;;;;;20.45;35.76;101687.72;5015588;28;20034;-74
2022/03/29 02:50:12;;;;;;;;;;;;;;;20.44;35.80;101678.13;5029240;28;20044;-74
2022/03/29 02:53:02;;;;;;;6.30;4.45;;;;;;;20.43;35.82;101671.19;5001699;28;19929;-74
2022/03/29 02:55:29;;;;;;;7.05;4.55;;;;;;;20.43;35.83;101681.78;5027012;28;20124;-74
2022/03/29 02:57:56;;;;;;;6.07;4.63;;;;;;;20.37;35.89;101670.00;5004674;28;20033;-74
2022/03/29 03:00:22;;;;;;;5.65;4.72;;;;;;;20.40;35.80;101672.31;5036408;28;20051;-74
2022/03/29 03:02:50;;;;;;;7.25;4.80;;;;;;;20.35;35.80;101669.34;5002765;28;20040;-74
2022/03/29 03:05:15;;;;;;;6.05;4.60;;;;;;;20.42;35.78;101680.13;5022545;28;20033;-74
2022/03/29 03:07:43;;;;;;;6.63;4.82;;;;;;;20.42;35.73;101673.03;5027754;28;20052;-74
2022/03/29 03:10:10;;;;;;;7.22;4.70;;;;;;;20.41;35.78;101668.72;5003736;28;20083;-73
2022/03/29 03:12:40;;;;;;;7.00;4.60;;;;;;;20.34;35.75;101654.47;5033280;28;20419;-74
2022/03/29 03:15:06;;;;;;;;;;;;;;;20.37;35.88;101662.06;5003224;28;20041;-73
2022/03/29 03:17:32;;;;;;;6.97;4.95;;;;;;;20.36;35.83;101659.59;5026810;28;19973;-74
2022/03/29 03:19:57;;;;;;;6.45;4.30;;;;;;;20.37;35.93;101658.59;4990224;28;20033;-74
2022/03/29 03:22:23;;;;;;;5.93;4.53;;;;;;;20.15;35.91;101629.16;5028619;28;20040;-74
2022/03/29 03:24:49;;;;;;;5.47;4.47;;;;;;;20.11;35.91;101622.53;5004026;28;20610;-74
2022/03/29 03:27:16;;;;;;;7.25;5.15;;;;;;;20.31;36.00;101654.81;5026805;28;20033;-74
2022/03/29 03:29:42;;;;;;;6.85;4.43;;;;;;;20.30;35.96;101645.22;5013500;28;20060;-74
2022/03/29 03:32:08;;;;;;;5.95;4.45;;;;;;;20.31;35.91;101654.81;5026598;28;20045;-74
2022/03/29 03:34:34;;;;;;;6.70;5.00;;;;;;;20.32;35.95;101639.75;5020279;28;20037;-74
2022/03/29 03:37:02;;;;;;;6.30;4.40;;;;;;;20.26;35.87;101629.81;4968295;28;20079;-74
2022/03/29 03:39:30;;;;;;;6.35;4.72;;;;;;;20.28;35.89;101630.47;5032312;28;20405;-74
2022/03/29 03:41:55;;;;;;;7.40;4.97;;;;;;;20.14;36.08;101608.97;5003685;28;20123;-74
2022/03/29 03:44:22;;;;;;;6.47;4.38;;;;;;;20.26;36.01;101628.00;5032934;28;20041;-75
2022/03/29 03:46:48;;;;;;;5.07;3.97;;;;;;;20.30;35.91;101629.34;5003465;28;20052;-74
2022/03/29 03:49:13;;;;;;;6.32;4.65;;;;;;;20.29;35.98;101629.47;5032254;28;20040;-74
2022/03/29 03:51:39;;;;;;;6.15;4.95;;;;;;;20.28;35.96;101633.94;4987913;28;20036;-74
2022/03/29 03:54:06;;;;;;;5.65;4.47;;;;;;;20.29;36.12;101629.47;5027806;28;20037;-74
2022/03/29 03:56:31;;;;;;;6.22;4.57;;;;;;;20.28;35.99;101630.47;5025184;28;20049;-74
2022/03/29 03:58:59;;;;;;;6.85;4.78;;;;;;;20.28;35.91;101623.38;5014946;28;20055;-74
2022/03/29 04:01:25;;;;;;;5.75;4.40;;;;;;;20.24;36.07;101624.69;5022035;28;20048;-74
2022/03/29 04:03:51;;;;;;;4.88;4.20;;;;;;;20.25;35.94;101622.88;5019305;28;20444;-74
2022/03/29 04:06:16;;;;;;;6.30;4.80;;;;;;;20.26;36.00;101629.81;5032914;28;20045;-74
2022/03/29 04:08:42;;;;;;;6.38;4.90;;;;;;;20.23;35.99;101626.50;4990112;28;20044;-74
2022/03/29 04:11:07;;;;;;;6.18;4.30;;;;;;;20.06;36.01;101594.91;5032098;28;20036;-74
2022/03/29 04:13:34;;;;;;;5.95;4.50;;;;;;;20.07;36.05;101597.38;5005447;28;20385;-74
2022/03/29 04:16:01;;;;;;;6.20;4.55;;;;;;;20.18;36.12;101612.13;5037779;28;20419;-74
2022/03/29 04:18:26;;;;;;;5.78;4.35;;;;;;;20.20;36.16;101607.50;5002734;28;20413;-75
2022/03/29 04:20:53;;;;;;;5.70;4.40;;;;;;;20.17;35.96;101603.38;5038510;28;20042;-74
2022/03/29 04:23:19;;;;;;;7.22;4.80;;;;;;;20.18;35.97;101604.19;4990696;28;20116;-74
2022/03/29 04:25:45;;;;;;;6.78;4.40;;;;;;;20.16;36.07;101598.25;5036272;28;20033;-74
2022/03/29 04:28:11;;;;;;;6.00;4.15;;;;;;;20.13;36.16;101595.94;5027531;28;20395;-74
2022/03/29 04:30:36;;;;;;;6.38;4.68;;;;;;;20.17;36.07;101602.53;5002444;28;20451;-75
2022/03/29 04:33:02;;;;;;;5.82;4.35;;;;;;;20.19;36.05;101603.19;5033445;28;20152;-74
2022/03/29 04:35:27;;;;;;;8.13;4.90;;;;;;;20.05;36.13;101580.03;5001639;28;20095;-74
2022/03/29 04:37:53;;;;;;;5.50;4.60;;;;;;;20.20;35.95;101592.47;5038229;28;20102;-74
2022/03/29 04:40:20;;;;;;;5.30;4.00;;;;;;;20.20;35.95;101591.63;4994027;28;20407;-74
2022/03/29 04:42:50;;;;;;;5.88;4.50;;;;;;;20.19;35.98;101590.81;5032369;28;20176;-74
2022/03/29 04:45:17;;;;;;;5.28;4.03;;;;;;;20.17;35.88;101584.84;5005832;28;20083;-74
2022/03/29 04:47:44;;;;;;;5.05;4.13;;;;;;;20.22;35.88;101587.81;5033112;28;20048;-74
2022/03/29 04:50:11;;;;;;;7.22;5.10;;;;;;;20.23;35.88;101586.84;5003081;28;20047;-74
2022/03/29 04:52:39;;;;;;;5.03;4.00;;;;;;;20.19;35.83;101582.03;5032841;28;20051;-74
2022/03/29 04:55:06;;;;;;;5.20;4.60;;;;;;;20.14;36.03;101574.59;5003063;28;20210;-75
2022/03/29 04:57:32;;;;;;;5.70;4.50;;;;;;;20.22;35.97;101587.81;5027535;28;20377;-73
2022/03/29 04:59:58;;;;;;;6.03;4.70;;;;;;;20.18;35.89;101580.38;5034392;28;20484;-73
2022/03/29 05:02:23;;;;;;;4.57;4.00;;;;;;;20.20;35.97;101586.34;5006364;28;20107;-73
2022/03/29 05:04:50;;;;;;;4.50;4.03;;;;;;;20.26;35.98;101590.97;5028075;28;20124;-73
2022/03/29 05:07:17;;;;;;;6.30;4.72;;;;;;;20.35;35.67;101592.63;5005567;28;20748;-74
2022/03/29 05:09:42;;;;;;;6.03;4.82;;;;;;;20.44;35.65;101583.72;5027894;28;20056;-74
2022/03/29 05:12:08;;;;;;;5.93;4.03;;;;;;;20.81;35.11;101590.31;4983914;28;20065;-73
2022/03/29 05:14:34;;;;;;;5.95;4.43;;;;;;;20.98;35.11;101581.34;5034363;28;20028;-74
2022/03/29 05:17:00;;;;;;;6.03;4.22;;;;;;;21.30;34.72;101588.41;5007185;28;20452;-74
2022/03/29 05:19:26;;;;;;;5.10;3.90;;;;;;;21.75;33.88;101576.31;5034868;28;20037;-75
2022/03/29 05:21:52;;;;;;;5.18;4.32;;;;;;;22.15;33.54;101571.78;4999896;28;20063;-75
2022/03/29 05:24:18;;;;;;;5.60;4.38;;;;;;;22.47;32.87;101568.03;5029683;28;20395;-75
2022/03/29 05:26:44;;;;;;;5.82;4.40;;;;;;;22.51;32.85;101564.00;5008126;28;20712;-74
2022/03/29 05:29:11;;;;;;;5.38;4.30;;;;;;;22.54;32.74;101564.47;5022753;28;20044;-74
2022/03/29 05:31:37;;;;;;;5.25;4.10;;;;;;;22.65;32.68;101573.84;5041511;28;20040;-74
2022/03/29 05:34:03;;;;;;;6.47;4.97;;;;;;;22.48;32.81;101559.06;5000848;28;20249;-74
2022/03/29 05:36:29;;;;;;;5.78;4.05;;;;;;;22.39;33.01;101576.06;5028572;28;20044;-74
2022/03/29 05:38:54;;;;;;;5.63;4.20;;;;;;;22.21;33.76;101566.56;5002667;28;20132;-75
2022/03/29 05:41:20;;;;;;;5.00;4.00;;;;;;;22.06;33.74;101573.63;5037156;28;20139;-75
2022/03/29 05:43:47;;;;;;;5.18;3.95;;;;;;;22.07;33.59;101577.13;5003125;28;20631;-75
2022/03/29 05:48:59;;;;;;;5.22;4.10;;;;;;;22.28;33.50;101574.66;5027782;28;20131;-74
2022/03/29 05:51:26;;;;;;;5.85;4.13;;;;;;;22.42;33.36;101578.34;5003380;28;20068;-74
2022/03/29 05:53:53;;;;;;;4.97;3.80;;;;;;;22.52;33.03;101573.63;5031770;28;20079;-74
2022/03/29 05:56:19;;;;;;;6.75;4.47;;;;;;;22.52;33.26;101555.88;5004733;28;20037;-74
2022/03/29 05:58:44;;;;;;;6.65;4.28;;;;;;;22.54;32.83;101545.91;5029873;28;20560;-74
2022/03/29 06:01:10;;;;;;;4.40;3.97;;;;;;;22.80;32.74;101573.84;4990563;28;22169;-74
2022/03/29 06:03:35;;;;;;;5.85;4.20;;;;;;;22.71;33.16;101562.50;5027895;28;20130;-74
2022/03/29 06:06:01;;;;;;;5.13;4.13;;;;;;;22.58;33.16;101567.59;5004109;28;20166;-75
2022/03/29 06:08:26;;;;;;;4.82;4.20;;;;;;;22.40;33.50;101559.94;5029238;28;20699;-74
2022/03/29 06:10:53;;;;;;;5.38;4.07;;;;;;;22.30;33.63;101560.22;4980016;28;20259;-75
2022/03/29 06:13:19;;;;;;;5.22;4.03;;;;;;;22.24;33.83;101562.72;5033990;28;20299;-75
2022/03/29 06:15:45;;;;;;;5.47;4.20;;;;;;;22.00;34.25;101547.81;5006377;28;20522;-75
2022/03/29 06:18:10;;;;;;;6.53;4.32;;;;;;;21.96;34.16;101565.91;5019842;28;20049;-75
2022/03/29 06:20:36;;;;;;;5.72;4.13;;;;;;;21.88;34.52;101570.41;5033898;28;20044;-75
2022/03/29 06:23:02;;;;;;;5.30;3.88;;;;;;;21.85;34.57;101568.94;5002781;28;20044;-75
2022/03/29 06:25:27;;;;;;;6.68;4.50;;;;;;;21.82;34.61;101568.47;5030988;28;20500;-74
2022/03/29 06:27:54;;;;;;;5.03;3.90;;;;;;;21.78;34.70;101568.00;4998952;28;20048;-75
2022/03/29 06:30:21;;;;;;;5.13;4.20;;;;;;;21.64;34.77;101555.47;5030164;28;20060;-75
2022/03/29 06:32:51;;;;;;;4.80;3.85;;;;;;;21.69;34.67;101567.19;4989212;28;20722;-75
2022/03/29 06:35:22;;;;;;;5.15;4.00;;;;;;;21.73;34.73;101569.53;5026316;28;20691;-74
2022/03/29 06:37:49;;;;;;;5.32;3.95;;;;;;;22.03;34.15;101564.19;5010035;28;20037;-75
2022/03/29 06:40:15;;;;;;;5.18;4.10;;;;;;;22.22;33.69;101551.47;5030961;28;20045;-74
2022/03/29 06:42:41;;;;;;;4.95;3.85;;;;;;;22.63;33.03;101573.19;5012701;28;20044;-75
2022/03/29 06:45:08;;;;;;;7.18;4.30;;;;;;;22.67;32.94;101571.84;5019402;28;20037;-74
2022/03/29 06:47:34;;;;;;;4.53;3.92;;;;;;;22.58;33.64;101564.94;5021659;28;20053;-75
2022/03/29 06:50:01;;;;;;;6.35;4.55;;;;;;;22.51;33.59;101567.50;4989052;28;20041;-74
2022/03/29 06:52:28;;;;;;;5.70;3.97;;;;;;;22.43;33.64;101564.06;5029459;28;20084;-74
2022/03/29 06:54:54;;;;;;;6.10;4.43;;;;;;;22.34;33.90;101568.63;5003963;28;20064;-73
2022/03/29 06:57:20;;;;;;;4.80;4.03;;;;;;;22.18;33.90;101569.59;5029997;28;20049;-73
2022/03/29 06:59:46;;;;;;;5.55;4.28;;;;;;;22.07;34.25;101564.69;5003885;28;20032;-73
2022/03/29 07:02:11;;;;;;;7.47;4.30;;;;;;;22.01;34.20;101568.84;5044149;28;20040;-73
2022/03/29 07:04:37;;;;;;;6.20;4.70;;;;;;;21.92;34.13;101551.34;5018534;28;20037;-73
2022/03/29 07:07:03;;;;;;;5.60;4.30;;;;;;;21.92;34.52;101569.09;5004748;28;20098;-73
2022/03/29 07:12:13;;;;;;;6.15;4.18;;;;;;;21.76;34.77;101567.34;5001945;28;20037;-73
2022/03/29 07:14:39;;;;;;;5.70;4.07;;;;;;;21.78;34.80;101572.47;5028457;28;20041;-73
2022/03/29 07:17:08;;;;;;;7.43;4.43;;;;;;;21.73;34.79;101572.19;4999658;28;20054;-73
2022/03/29 07:19:33;;;;;;;4.97;3.78;;;;;;;21.73;34.49;101575.66;5032259;28;20486;-73
2022/03/29 07:21:59;;;;;;;5.55;4.07;;;;;;;21.69;34.81;101567.19;4992290;28;20043;-73
2022/03/29 07:24:24;;;;;;;6.80;4.75;;;;;;;21.74;34.77;101576.47;5027541;28;20046;-73
2022/03/29 07:26:50;;;;;;;5.80;4.53;;;;;;;21.73;34.52;101582.78;4999335;28;20044;-73
2022/03/29 07:29:16;;;;;;;6.60;4.57;;;;;;;21.68;34.86;101573.50;5030297;28;20059;-72
2022/03/29 07:31:42;;;;;;;6.88;4.50;;;;;;;21.67;34.81;101579.81;5015931;28;20244;-72
2022/03/29 07:34:07;;;;;;;5.10;4.00;;;;;;;21.67;34.57;101568.38;5025256;28;20053;-74
2022/03/29 07:36:33;;;;;;;6.65;4.38;;;;;;;21.74;34.56;101569.34;5025238;28;20068;-73
2022/03/29 07:38:59;;;;;;;6.05;4.45;;;;;;;21.86;34.35;101575.88;5008341;28;20067;-73
2022/03/29 07:41:25;;;;;;;6.32;4.55;;;;;;;21.99;34.25;101576.16;5032822;28;20044;-72
2022/03/29 07:43:50;;;;;;;7.55;4.82;;;;;;;22.08;34.10;101568.97;5008013;28;20052;-71
2022/03/29 07:46:16;;;;;;;5.18;4.10;;;;;;;22.06;34.36;101559.56;5041326;28;20552;-74
2022/03/29 07:48:41;;;;;;;6.20;4.53;;;;;;;22.03;34.08;101561.53;5012759;28;20045;-73
2022/03/29 07:51:10;;;;;;;8.02;4.72;;;;;;;22.01;34.23;101576.78;5041085;28;20041;-72
2022/03/29 07:53:35;;;;;;;5.85;4.45;;;;;;;21.90;34.47;101561.31;4989737;28;20051;-70
2022/03/29 07:56:01;;;;;;;7.00;4.45;;;;;;;21.90;34.26;101558.66;5041221;28;20033;-70
2022/03/29 07:58:27;;;;;;;5.82;4.00;;;;;;;21.83;34.52;101560.34;5036910;28;20087;-70
2022/03/29 08:00:53;;;;;;;4.97;4.10;;;;;;;21.79;34.52;101564.34;5008468;28;20051;-70
2022/03/29 08:03:20;;;;;;;5.80;4.50;;;;;;;21.75;34.74;101554.28;5039844;28;20071;-70
2022/03/29 08:05:47;;;;;;;5.03;4.22;;;;;;;21.77;34.48;101561.06;5011437;28;20059;-70
2022/03/29 08:08:14;;;;;;;5.95;4.25;;;;;;;21.74;34.78;101555.28;5031462;28;20076;-71
2022/03/29 08:10:41;;;;;;;6.55;4.30;;;;;;;21.71;34.96;101549.28;4997450;28;20041;-71
2022/03/29 08:13:08;;;;;;;6.18;4.68;;;;;;;21.70;34.88;101552.94;5035766;28;20120;-70
2022/03/29 08:15:35;;;;;;;6.30;4.40;;;;;;;21.79;34.82;101553.75;5001243;28;20101;-71
2022/03/29 08:18:01;;;;;;;5.07;3.90;;;;;;;22.09;34.16;101554.75;5039597;28;20115;-71
2022/03/29 08:20:29;;;;;;;5.40;4.32;;;;;;;22.35;33.66;101556.19;5009242;28;20417;-71
2022/03/29 08:22:59;;;;;;;5.30;4.55;;;;;;;22.47;33.65;101544.97;5040425;28;20029;-71
2022/03/29 08:25:25;;;;;;;7.38;4.38;;;;;;;22.36;33.89;101541.91;5000106;28;20115;-71
2022/03/29 08:27:50;;;;;;;7.63;4.82;;;;;;;22.27;34.02;101531.38;5037675;28;20029;-71
2022/03/29 08:30:16;;;;;;;5.95;4.53;;;;;;;22.15;33.93;101527.50;5040146;28;20052;-71
2022/03/29 08:32:43;;;;;;;5.78;4.35;;;;;;;22.13;34.08;101534.00;4996154;28;20033;-71
2022/03/29 08:35:10;;;;;;;7.45;4.75;;;;;;;22.09;34.09;101522.09;5039584;28;20073;-70
2022/03/29 08:37:36;;;;;;;6.05;4.22;;;;;;;22.08;34.10;101531.84;5007398;28;20037;-71
2022/03/29 08:40:06;;;;;;;6.55;5.18;;;;;;;22.01;34.59;101529.06;5039896;28;20086;-71
2022/03/29 08:42:31;;;;;;;5.97;3.97;;;;;;;21.95;34.68;101524.47;4998818;28;20478;-71
2022/03/29 08:45:05;;;;;;;7.20;4.57;;;;;;;21.90;34.51;101525.97;5042304;28;20055;-71
2022/03/29 08:47:31;;;;;;;6.10;4.63;;;;;;;21.94;34.54;101527.31;5004482;28;20082;-71
2022/03/29 08:49:57;;;;;;;9.55;5.15;;;;;;;21.90;34.63;101526.84;5033279;28;20065;-71
2022/03/29 08:52:23;;;;;;;5.78;4.45;;;;;;;21.83;34.67;101520.56;5004404;28;20139;-70
2022/03/29 08:54:49;;;;;;;5.95;3.97;;;;;;;21.83;34.55;101515.28;5035292;28;20036;-71
2022/03/29 08:57:14;;;;;;;5.22;4.05;;;;;;;21.90;34.64;101521.53;5006126;28;20112;-71
2022/03/29 08:59:42;;;;;;;5.95;4.65;;;;;;;21.90;34.56;101518.88;5022998;28;20165;-71
2022/03/29 09:02:17;;;;;;;6.30;4.60;;;;;;;21.85;34.39;101502.66;5034927;28;20043;-71
2022/03/29 09:04:44;;;;;;;4.88;3.88;;;;;;;21.77;34.80;101497.44;5006709;28;20056;-72
2022/03/29 09:07:11;;;;;;;5.88;4.30;;;;;;;21.92;34.43;101516.88;5038396;28;20044;-71
2022/03/29 09:09:40;;;;;;;5.93;4.43;;;;;;;21.86;34.71;101514.91;5014038;28;20119;-70
2022/03/29 09:12:17;;;;;;;6.97;4.70;;;;;;;21.89;34.70;101511.91;5043397;28;20036;-71
2022/03/29 09:15:00;;;;;;;5.90;4.57;;;;;;;21.91;34.48;101511.75;4994790;28;20052;-72
2022/03/29 09:17:31;;;;;;;5.43;4.05;;;;;;;22.04;34.33;101517.25;5033222;28;20102;-72
2022/03/29 09:20:04;;;;;;;8.02;4.97;;;;;;;22.49;33.75;101515.59;4995247;28;20247;-69
2022/03/29 09:22:46;;;;;;;7.10;4.75;;;;;;;22.68;33.75;101512.41;4967012;28;20115;-73
2022/03/29 09:25:22;;;;;;;7.47;4.45;;;;;;;22.68;33.75;101514.25;5006698;28;20055;-69
2022/03/29 09:28:00;;;;;;;9.48;4.75;;;;;;;22.82;33.85;101508.97;5028946;28;20043;-68
2022/03/29 09:30:38;;;;;;;6.25;4.50;;;;;;;22.84;33.77;101516.75;4988618;28;20099;-68
2022/03/29 09:33:10;;;;;;;7.28;4.95;;;;;;;22.82;34.04;101508.97;5039028;28;20048;-67
2022/03/29 09:36:07;;;;;;;5.90;4.45;;;;;;;22.81;33.93;101512.63;5026838;28;20037;-67
2022/03/29 09:38:44;;;;;;;7.88;4.18;;;;;;;22.86;34.09;101506.78;5009904;28;20049;-72
2022/03/29 09:41:29;;;;;;;7.07;4.80;;;;;;;22.89;34.15;101509.06;5009294;28;20114;-69
2022/03/29 09:44:08;;;;;;;6.15;4.40;;;;;;;;;;5010558;28;20044;-69
2022/03/29 09:46:54;;;;;;;6.28;4.57;;;;;;;22.89;34.04;101511.72;4996721;28;20048;-72
2022/03/29 09:49:20;;;;;;;7.30;4.60;;;;;;;22.94;34.33;101516.47;5024665;28;20029;-72
2022/03/29 09:51:46;;;;;;;5.82;4.30;;;;;;;22.88;34.32;101508.25;5013778;28;20178;-70
2022/03/29 09:54:12;;;;;;;9.05;4.93;;;;;;;22.91;34.09;101507.03;5003117;28;20266;-70
2022/03/29 09:56:38;;;;;;;8.95;5.75;;;;;;;22.81;34.42;101507.31;5014434;28;20773;-72
2022/03/29 09:59:14;;;;;;;9.63;5.00;;;;;;;22.80;34.34;101499.50;4997324;28;20044;-71
2022/03/29 10:01:53;;;;;;;8.05;5.00;;;;;;;22.88;34.24;101510.06;5016810;28;20620;-72
2022/03/29 10:04:20;;;;;;;6.85;4.88;;;;;;;22.86;34.02;101502.28;4992631;28;20100;-71
2022/03/29 10:06:54;;;;;;;6.88;4.88;;;;;;;22.87;34.31;101497.81;5046831;28;20825;-71
2022/03/29 10:09:26;;;;;;;8.25;4.80;;;;;;;22.89;33.96;101501.09;4972916;28;20355;-72
2022/03/29 10:11:57;;;;;;;8.50;5.57;;;;;;;22.86;33.78;101488.19;5038947;28;20441;-71
2022/03/29 10:14:25;;;;;;;8.82;4.82;;;;;;;22.91;33.82;101505.22;4983938;28;20575;-73
2022/03/29 10:16:53;;;;;;;8.82;4.90;;;;;;;22.94;33.85;101496.03;5036850;28;20732;-73
2022/03/29 10:19:20;;;;;;;6.53;4.57;;;;;;;22.70;34.41;101504.28;4967364;28;20509;-74
2022/03/29 10:21:46;;;;;;;7.38;4.90;;;;;;;22.67;34.76;101502.81;5029137;28;20435;-74
2022/03/29 10:24:15;;;;;;;6.53;4.45;;;;;;;22.62;34.81;101489.22;4964244;28;20040;-73
2022/03/29 10:26:48;;;;;;;6.78;4.45;;;;;;;22.59;34.96;101494.91;5031161;28;20048;-73
2022/03/29 10:29:14;;;;;;;7.65;5.10;;;;;;;22.54;34.73;101492.81;4986083;28;20072;-73
2022/03/29 10:31:54;;;;;;;6.45;4.18;;;;;;;22.55;34.88;101490.97;5031923;28;20120;-74
2022/03/29 10:34:30;;;;;;;6.22;5.00;;;;;;;22.52;35.08;101494.00;4968969;28;20036;-74
2022/03/29 10:37:27;;;;;;;6.70;4.68;;;;;;;22.49;34.78;101489.06;5027953;28;20053;-72
2022/03/29 10:39:58;;;;;;;6.70;4.90;;;;;;;22.50;35.08;101490.72;4966031;28;20198;-73
2022/03/29 10:42:29;;;;;;;6.40;4.80;;;;;;;22.49;34.96;101484.56;5031543;28;20499;-72
2022/03/29 10:45:00;;;;;;;6.15;4.65;;;;;;;22.47;34.81;101483.13;4972086;28;20575;-72
2022/03/29 10:47:27;;;;;;;9.55;4.88;;;;;;;22.39;34.68;101477.88;5031622;28;20028;-71
2022/03/29 10:49:53;;;;;;;8.70;4.82;;;;;;;22.39;34.69;101480.53;4978764;28;20304;-72
2022/03/29 10:52:21;;;;;;;10.48;5.80;;;;;;;22.38;34.60;101477.03;5016858;28;20455;-72
2022/03/29 10:54:49;;;;;;;8.60;4.80;;;;;;;22.31;34.94;101470.81;5003646;28;20045;-72
2022/03/29 10:57:28;;;;;;;8.13;4.70;;;;;;;22.31;35.26;101474.31;5006499;28;20094;-71
2022/03/29 11:00:10;;;;;;;7.13;4.63;;;;;;;22.37;35.40;101474.56;5007068;28;20646;-72
2022/03/29 11:02:36;;;;;;;7.43;4.82;;;;;;;22.31;35.21;101468.16;5001550;28;20483;-72
2022/03/29 11:05:12;;;;;;;7.68;4.63;;;;;;;22.32;35.16;101461.84;5003812;28;20049;-72
2022/03/29 11:07:52;;;;;;;8.43;4.97;;;;;;;22.30;35.31;101466.53;4989365;28;20140;-72
2022/03/29 11:10:20;;;;;;;8.07;4.82;;;;;;;22.28;34.90;101456.09;5010221;28;20487;-70
2022/03/29 11:12:48;;;;;;;8.45;5.18;;;;;;;22.30;35.02;101442.66;5008569;28;20285;-71
2022/03/29 11:15:35;;;;;;;6.40;4.28;;;;;;;22.27;35.11;101458.94;5007950;28;20485;-71
2022/03/29 11:18:04;;;;;;;7.40;4.70;;;;;;;22.35;34.41;101445.56;5002067;28;20041;-70
2022/03/29 11:20:35;;;;;;;;;;;;;;;22.26;34.82;101450.16;5007536;28;20102;-71
2022/03/29 11:23:01;;;;;;;8.95;4.68;;;;;;;22.27;34.45;101448.31;4995885;28;19916;-71
2022/03/29 11:25:27;;;;;;;6.95;4.47;;;;;;;22.19;34.55;101440.41;5015197;28;20033;-71
2022/03/29 11:28:03;;;;;;;7.85;5.03;;;;;;;22.21;34.60;101444.53;5010932;28;21581;-70
2022/03/29 11:30:29;;;;;;;8.18;4.32;;;;;;;22.18;34.26;101441.44;5005854;28;20041;-70
2022/03/29 11:32:55;;;;;;;6.95;4.50;;;;;;;22.20;34.52;101444.72;5002298;28;20454;-70
2022/03/29 11:35:24;;;;;;;8.10;4.65;;;;;;;22.17;34.26;101443.25;5013955;28;20037;-71
2022/03/29 11:37:50;;;;;;;7.63;4.40;;;;;;;22.13;34.32;101439.31;5007357;28;20464;-71